Time;durP1;ratioP1;P1;durP2;ratioP2;P2;SDS_P1;SDS_P2;PMS_P1;PMS_P2;Temp;Humidity;BMP_temperature;BMP_pressure;BME280_temperature;BME280_humidity;BME280_pressure;Samples;Min_cycle;Max_cycle;Signal;HPM_P1;HPM_P2
2023/06/21 00:00:45;;;;;;;;;13.67;13.67;;;;;;;;5116706;27;44641;-74
2023/06/21 00:03:10;;;;;;;;;16.33;14.33;;;;;;;;5120936;27;45197;-74
2023/06/21 00:05:38;;;;;;;;;12.67;12.33;;;;;;;;5119234;27;45385;-75
2023/06/21 00:08:03;;;;;;;;;14.00;14.00;;;;;;;;5121139;27;45270;-75
2023/06/21 00:10:29;;;;;;;;;14.67;14.67;;;;;;;;5119657;27;45366;-74
2023/06/21 00:12:55;;;;;;;;;15.00;15.00;;;;;;;;5102615;27;46117;-75
2023/06/21 00:15:20;;;;;;;;;15.33;15.33;;;;;;;;5120386;27;44920;-74
2023/06/21 00:17:45;;;;;;;;;18.00;16.67;;;;;;;;5104438;27;45308;-75
2023/06/21 00:20:11;;;;;;;;;14.33;14.00;;;;;;;;5120496;27;44705;-74
2023/06/21 00:22:37;;;;;;;;;15.00;15.00;;;;;;;;5102715;27;46253;-75
2023/06/21 00:25:03;;;;;;;;;12.33;11.33;;;;;;;;5117685;27;45140;-75
2023/06/21 00:27:28;;;;;;;;;16.00;15.00;;;;;;;;5117508;27;45267;-75
2023/06/21 00:29:53;;;;;;;;;18.67;16.33;;;;;;;;5085686;28;45240;-75
2023/06/21 00:32:18;;;;;;;;;13.33;13.33;;;;;;;;5097318;28;45337;-75
2023/06/21 00:34:46;;;;;;;;;15.00;14.33;;;;;;;;5097410;28;46383;-74
2023/06/21 00:37:12;;;;;;;;;17.33;14.33;;;;;;;;5079784;28;44702;-74
2023/06/21 00:39:37;;;;;;;;;14.67;14.67;;;;;;;;5097879;28;44746;-74
2023/06/21 00:42:02;;;;;;;;;14.00;12.67;;;;;;;;5097437;28;44810;-75
2023/06/21 00:44:27;;;;;;;;;14.33;14.00;;;;;;;;5086686;28;45675;-75
2023/06/21 00:46:53;;;;;;;;;15.00;15.00;;;;;;;;5077986;28;44598;-75
2023/06/21 00:49:18;;;;;;;;;17.33;15.67;;;;;;;;5060112;28;45360;-74
2023/06/21 00:51:44;;;;;;;;;16.67;15.00;;;;;;;;5059905;28;46553;-74
2023/06/21 00:54:15;;;;;;;;;16.00;14.67;;;;;;;;5060976;28;47644;-74
2023/06/21 00:56:41;;;;;;;;;15.67;15.67;;;;;;;;5060519;28;45243;-75
2023/06/21 00:59:06;;;;;;;;;13.00;12.00;;;;;;;;5078391;28;44652;-74
2023/06/21 01:01:31;;;;;;;;;14.33;13.67;;;;;;;;5078277;28;45359;-74
2023/06/21 01:03:57;;;;;;;;;14.67;14.67;;;;;;;;5060125;28;47226;-74
2023/06/21 01:06:45;;;;;;;;;15.00;14.33;;;;;;;;5078640;28;44684;-75
2023/06/21 01:09:26;;;;;;;;;13.33;13.33;;;;;;;;5063979;28;45299;-74
2023/06/21 01:11:53;;;;;;;;;12.00;12.00;;;;;;;;5078543;28;45574;-74
2023/06/21 01:14:40;;;;;;;;;13.67;12.67;;;;;;;;5078003;28;45265;-75
2023/06/21 01:17:08;;;;;;;;;13.00;13.00;;;;;;;;5059869;28;45953;-74
2023/06/21 01:19:48;;;;;;;;;14.67;14.67;;;;;;;;5059943;28;45159;-74
2023/06/21 01:22:19;;;;;;;;;10.00;10.00;;;;;;;;5078520;28;44807;-74
2023/06/21 01:25:11;;;;;;;;;13.67;12.67;;;;;;;;5061582;28;47276;-75
2023/06/21 01:27:41;;;;;;;;;11.67;11.67;;;;;;;;5038759;28;45863;-75
2023/06/21 01:30:08;;;;;;;;;15.33;14.00;;;;;;;;5078169;28;45363;-74
2023/06/21 01:32:34;;;;;;;;;15.67;15.67;;;;;;;;5058853;28;46112;-74
2023/06/21 01:35:01;;;;;;;;;17.00;15.00;;;;;;;;5078241;28;45047;-74
2023/06/21 01:37:26;;;;;;;;;17.00;16.00;;;;;;;;5077474;28;45303;-74
2023/06/21 01:39:52;;;;;;;;;11.33;11.33;;;;;;;;5078302;28;44625;-74
2023/06/21 01:42:18;;;;;;;;;11.33;11.33;;;;;;;;5078553;28;44827;-74
2023/06/21 01:44:43;;;;;;;;;12.67;12.67;;;;;;;;5057066;28;47455;-74
2023/06/21 01:47:09;;;;;;;;;15.00;15.00;;;;;;;;5074440;28;45362;-74
2023/06/21 01:49:35;;;;;;;;;13.00;13.00;;;;;;;;5074372;28;45202;-75
2023/06/21 01:52:04;;;;;;;;;15.33;14.00;;;;;;;;5074286;28;45486;-74
2023/06/21 01:54:30;;;;;;;;;15.00;15.00;;;;;;;;5076424;28;45944;-74
2023/06/21 01:56:59;;;;;;;;;12.33;12.33;;;;;;;;5059134;28;45772;-74
2023/06/21 01:59:24;;;;;;;;;13.33;12.00;;;;;;;;5076065;28;44642;-75
2023/06/21 02:01:50;;;;;;;;;11.00;11.00;;;;;;;;5075925;28;45195;-75
2023/06/21 02:04:15;;;;;;;;;15.67;15.00;;;;;;;;5076171;28;45223;-74
2023/06/21 02:06:41;;;;;;;;;12.33;12.33;;;;;;;;5075962;28;44596;-75
2023/06/21 02:09:09;;;;;;;;;13.00;13.00;;;;;;;;5059365;28;44869;-74
2023/06/21 02:11:34;;;;;;;;;15.33;15.33;;;;;;;;5059497;28;46023;-74
2023/06/21 02:14:00;;;;;;;;;14.67;13.67;;;;;;;;5077123;28;45303;-74
2023/06/21 02:16:29;;;;;;;;;13.33;12.67;;;;;;;;5076837;28;45252;-75
2023/06/21 02:18:55;;;;;;;;;11.00;11.00;;;;;;;;5073019;28;44874;-75
2023/06/21 02:21:20;;;;;;;;;13.33;12.33;;;;;;;;5073982;28;44684;-74
2023/06/21 02:23:45;;;;;;;;;15.67;15.67;;;;;;;;5074373;28;45241;-74
2023/06/21 02:26:11;;;;;;;;;12.00;11.00;;;;;;;;5075576;28;45238;-74
2023/06/21 02:28:37;;;;;;;;;14.67;14.67;;;;;;;;5060525;28;44926;-74
2023/06/21 02:31:02;;;;;;;;;16.33;15.00;;;;;;;;5095601;28;45311;-75
2023/06/21 02:33:27;;;;;;;;;14.00;14.00;;;;;;;;5095216;28;45394;-74
2023/06/21 02:35:52;;;;;;;;;17.67;17.67;;;;;;;;5076819;28;46205;-75
2023/06/21 02:38:19;;;;;;;;;12.00;12.00;;;;;;;;5075994;28;45516;-75
2023/06/21 02:40:44;;;;;;;;;12.67;12.67;;;;;;;;5095292;28;45413;-75
2023/06/21 02:43:09;;;;;;;;;16.00;14.33;;;;;;;;5094947;28;46164;-74
2023/06/21 02:45:36;;;;;;;;;13.00;12.33;;;;;;;;5094635;28;44589;-75
2023/06/21 02:48:01;;;;;;;;;12.00;11.00;;;;;;;;5078257;28;45248;-74
2023/06/21 02:50:26;;;;;;;;;13.33;13.00;;;;;;;;5095303;28;45287;-74
2023/06/21 02:52:51;;;;;;;;;15.67;15.67;;;;;;;;5094939;28;45228;-74
2023/06/21 02:55:17;;;;;;;;;13.33;13.33;;;;;;;;5091851;28;45278;-76
2023/06/21 02:57:42;;;;;;;;;15.00;13.67;;;;;;;;5096129;28;44847;-74
2023/06/21 03:00:23;;;;;;;;;13.33;13.33;;;;;;;;5095132;28;45204;-75
2023/06/21 03:02:51;;;;;;;;;13.67;13.67;;;;;;;;5093859;28;46634;-75
2023/06/21 03:05:17;;;;;;;;;12.67;12.33;;;;;;;;5094138;28;45333;-74
2023/06/21 03:07:44;;;;;;;;;10.33;10.00;;;;;;;;5093625;28;44783;-75
2023/06/21 03:10:15;;;;;;;;;12.67;12.00;;;;;;;;5094000;28;45440;-75
2023/06/21 03:12:41;;;;;;;;;12.33;12.33;;;;;;;;5094114;28;45299;-75
2023/06/21 03:15:06;;;;;;;;;13.67;12.33;;;;;;;;5093217;28;44707;-74
2023/06/21 03:17:32;;;;;;;;;16.00;15.00;;;;;;;;5095080;28;45185;-75
2023/06/21 03:19:57;;;;;;;;;12.67;10.00;;;;;;;;5096342;28;45099;-74
2023/06/21 03:22:22;;;;;;;;;13.33;13.33;;;;;;;;5078667;28;47133;-74
2023/06/21 03:24:47;;;;;;;;;13.67;13.67;;;;;;;;5093451;28;44578;-74
2023/06/21 03:27:13;;;;;;;;;13.33;13.33;;;;;;;;5095476;28;44855;-75
2023/06/21 03:29:39;;;;;;;;;14.00;14.00;;;;;;;;5094434;28;44716;-75
2023/06/21 03:32:04;;;;;;;;;12.33;12.33;;;;;;;;5094200;28;44956;-76
2023/06/21 03:34:29;;;;;;;;;12.00;12.00;;;;;;;;5095080;28;44624;-75
2023/06/21 03:36:54;;;;;;;;;13.67;12.33;;;;;;;;5076974;28;44805;-75
2023/06/21 03:39:20;;;;;;;;;13.00;12.67;;;;;;;;5089135;28;45306;-76
2023/06/21 03:41:45;;;;;;;;;14.67;14.67;;;;;;;;5094091;28;46429;-74
2023/06/21 03:44:10;;;;;;;;;11.00;10.67;;;;;;;;5090927;28;45335;-76
2023/06/21 03:46:35;;;;;;;;;11.67;10.67;;;;;;;;5093550;28;45305;-74
2023/06/21 03:49:01;;;;;;;;;10.00;10.00;;;;;;;;5093487;28;45288;-76
2023/06/21 03:51:26;;;;;;;;;14.00;13.00;;;;;;;;5077793;28;45992;-74
2023/06/21 03:53:51;;;;;;;;;15.00;15.00;;;;;;;;5094504;28;45469;-74
2023/06/21 03:56:17;;;;;;;;;15.33;14.00;;;;;;;;5095030;28;45252;-75
2023/06/21 03:58:43;;;;;;;;;14.33;12.33;;;;;;;;5094961;28;44704;-74
2023/06/21 04:01:08;;;;;;;;;15.67;14.33;;;;;;;;5076219;28;47290;-74
2023/06/21 04:03:33;;;;;;;;;11.67;11.00;;;;;;;;5092368;28;45364;-75
2023/06/21 04:05:58;;;;;;;;;15.00;14.67;;;;;;;;5090794;28;45302;-74
2023/06/21 04:08:23;;;;;;;;;12.00;11.67;;;;;;;;5070732;28;45378;-74
2023/06/21 04:10:48;;;;;;;;;17.00;14.33;;;;;;;;5094115;28;45324;-74
2023/06/21 04:13:14;;;;;;;;;12.00;10.00;;;;;;;;5093568;28;44738;-75
2023/06/21 04:15:39;;;;;;;;;11.00;11.00;;;;;;;;5091158;28;45321;-74
2023/06/21 04:18:04;;;;;;;;;14.00;12.33;;;;;;;;5094939;28;45278;-75
2023/06/21 04:20:30;;;;;;;;;14.00;12.67;;;;;;;;5072692;28;48523;-75
2023/06/21 04:22:56;;;;;;;;;13.00;12.33;;;;;;;;5087159;28;45355;-75
2023/06/21 04:25:21;;;;;;;;;14.67;14.00;;;;;;;;5071511;28;45310;-75
2023/06/21 04:27:46;;;;;;;;;12.67;12.33;;;;;;;;5087313;28;45361;-75
2023/06/21 04:30:11;;;;;;;;;11.33;11.33;;;;;;;;5093083;28;46028;-74
2023/06/21 04:32:44;;;;;;;;;12.00;10.33;;;;;;;;5093555;28;45263;-75
2023/06/21 04:35:11;;;;;;;;;14.00;14.00;;;;;;;;5093834;28;45274;-75
2023/06/21 04:37:37;;;;;;;;;10.00;8.67;;;;;;;;5093172;28;45334;-75
2023/06/21 04:40:02;;;;;;;;;14.00;13.33;;;;;;;;5091464;28;47055;-76
2023/06/21 04:42:27;;;;;;;;;14.00;13.00;;;;;;;;5092034;28;45377;-74
2023/06/21 04:44:54;;;;;;;;;12.00;12.00;;;;;;;;5091524;28;45490;-74
2023/06/21 04:47:19;;;;;;;;;13.00;12.00;;;;;;;;5076755;28;46224;-74
2023/06/21 04:49:44;;;;;;;;;11.33;11.33;;;;;;;;5097843;28;46079;-75
2023/06/21 04:52:10;;;;;;;;;12.67;12.67;;;;;;;;5095545;28;45223;-74
2023/06/21 04:54:36;;;;;;;;;14.00;13.33;;;;;;;;5075253;28;44631;-74
2023/06/21 04:57:02;;;;;;;;;14.00;13.00;;;;;;;;5076916;28;46149;-75
2023/06/21 04:59:27;;;;;;;;;11.33;10.00;;;;;;;;5076635;28;46365;-74
2023/06/21 05:01:53;;;;;;;;;15.33;15.33;;;;;;;;5091567;28;45296;-76
2023/06/21 05:04:18;;;;;;;;;17.33;17.33;;;;;;;;5094310;28;44783;-75
2023/06/21 05:06:43;;;;;;;;;12.00;12.00;;;;;;;;5089816;28;45382;-75
2023/06/21 05:09:08;;;;;;;;;14.00;14.00;;;;;;;;5090410;28;45855;-75
2023/06/21 05:11:34;;;;;;;;;13.00;13.00;;;;;;;;5097679;28;44643;-75
2023/06/21 05:13:59;;;;;;;;;14.67;14.67;;;;;;;;5070644;28;45327;-75
2023/06/21 05:16:24;;;;;;;;;13.33;13.33;;;;;;;;5095613;28;45220;-76
2023/06/21 05:18:49;;;;;;;;;14.00;14.00;;;;;;;;5098481;28;46349;-75
2023/06/21 05:21:14;;;;;;;;;15.00;15.00;;;;;;;;5097778;28;45393;-74
2023/06/21 05:23:40;;;;;;;;;15.00;15.00;;;;;;;;5099560;28;45283;-76
2023/06/21 05:26:05;;;;;;;;;13.67;13.67;;;;;;;;5080986;28;46092;-76
2023/06/21 05:28:31;;;;;;;;;12.67;11.00;;;;;;;;5082356;27;47390;-75
2023/06/21 05:30:56;;;;;;;;;13.33;12.00;;;;;;;;5114738;27;45436;-77
2023/06/21 05:33:21;;;;;;;;;15.33;14.00;;;;;;;;5114639;27;45579;-76
2023/06/21 05:35:46;;;;;;;;;14.00;14.00;;;;;;;;5098216;27;45710;-74
2023/06/21 05:38:11;;;;;;;;;15.33;14.67;;;;;;;;5112183;27;45344;-75
2023/06/21 05:40:37;;;;;;;;;13.67;12.67;;;;;;;;5113789;27;45156;-76
2023/06/21 05:43:03;;;;;;;;;13.00;12.67;;;;;;;;5111512;27;44671;-78
2023/06/21 05:45:28;;;;;;;;;14.00;14.00;;;;;;;;5111366;27;45204;-74
2023/06/21 05:47:54;;;;;;;;;19.33;19.33;;;;;;;;5115705;27;45171;-74
2023/06/21 05:50:19;;;;;;;;;17.00;17.00;;;;;;;;5115847;27;45242;-75
2023/06/21 05:52:44;;;;;;;;;17.33;17.33;;;;;;;;5100834;27;45229;-74
2023/06/21 05:55:09;;;;;;;;;17.00;15.33;;;;;;;;5119103;27;44845;-75
2023/06/21 05:57:35;;;;;;;;;13.67;13.67;;;;;;;;5116062;27;46025;-74
2023/06/21 06:00:00;;;;;;;;;17.67;15.33;;;;;;;;5103247;27;45402;-75
2023/06/21 06:02:25;;;;;;;;;16.00;16.00;;;;;;;;5103483;27;45313;-75
2023/06/21 06:04:50;;;;;;;;;15.33;14.00;;;;;;;;5100124;27;46310;-74
2023/06/21 06:07:15;;;;;;;;;17.00;17.00;;;;;;;;5115626;27;45215;-75
2023/06/21 06:09:41;;;;;;;;;15.00;14.67;;;;;;;;5116195;27;45120;-74
2023/06/21 06:12:06;;;;;;;;;17.33;17.00;;;;;;;;5115345;27;44619;-75
2023/06/21 06:14:31;;;;;;;;;13.33;13.33;;;;;;;;5117676;27;45305;-75
2023/06/21 06:16:56;;;;;;;;;15.33;15.00;;;;;;;;5099937;27;47358;-75
2023/06/21 06:19:22;;;;;;;;;15.67;15.67;;;;;;;;5102717;27;45936;-75
2023/06/21 06:21:47;;;;;;;;;15.00;14.00;;;;;;;;5103375;27;45434;-75
2023/06/21 06:24:12;;;;;;;;;15.33;15.33;;;;;;;;5115049;27;44779;-74
2023/06/21 06:26:37;;;;;;;;;19.67;18.00;;;;;;;;5118819;27;46323;-75
2023/06/21 06:29:03;;;;;;;;;17.67;17.33;;;;;;;;5117026;27;44676;-75
2023/06/21 06:31:29;;;;;;;;;15.00;15.00;;;;;;;;5101853;27;45566;-75
2023/06/21 06:33:54;;;;;;;;;16.67;16.67;;;;;;;;5118374;27;44889;-74
2023/06/21 06:36:19;;;;;;;;;16.00;15.00;;;;;;;;5115544;27;45000;-75
2023/06/21 06:38:47;;;;;;;;;15.67;15.00;;;;;;;;5096929;27;44811;-75
2023/06/21 06:41:13;;;;;;;;;16.00;14.00;;;;;;;;5100206;27;44577;-75
2023/06/21 06:43:38;;;;;;;;;17.00;17.00;;;;;;;;5115242;27;44729;-75
2023/06/21 06:46:03;;;;;;;;;15.33;15.33;;;;;;;;5113179;27;46055;-74
2023/06/21 06:48:29;;;;;;;;;17.00;17.00;;;;;;;;5101691;27;45110;-74
2023/06/21 06:50:54;;;;;;;;;15.00;13.67;;;;;;;;5117614;27;45203;-74
2023/06/21 06:53:19;;;;;;;;;16.00;15.00;;;;;;;;5095646;27;45106;-73
2023/06/21 06:55:44;;;;;;;;;13.67;13.67;;;;;;;;5113844;27;45200;-74
2023/06/21 06:58:09;;;;;;;;;16.33;16.33;;;;;;;;5110625;27;45282;-74
2023/06/21 07:00:38;;;;;;;;;16.33;16.33;;;;;;;;5108653;27;44778;-74
2023/06/21 07:03:04;;;;;;;;;17.67;16.67;;;;;;;;5114046;27;44923;-73
2023/06/21 07:05:29;;;;;;;;;15.33;15.33;;;;;;;;5116740;27;45088;-74
2023/06/21 07:07:55;;;;;;;;;18.00;15.00;;;;;;;;5116364;27;44648;-74
2023/06/21 07:10:20;;;;;;;;;18.67;17.00;;;;;;;;5110011;27;45287;-73
2023/06/21 07:12:45;;;;;;;;;13.33;12.67;;;;;;;;5107166;27;45306;-73
2023/06/21 07:15:10;;;;;;;;;18.67;17.33;;;;;;;;5110696;27;45515;-74
2023/06/21 07:17:36;;;;;;;;;19.00;17.00;;;;;;;;5109575;27;45298;-74
2023/06/21 07:20:01;;;;;;;;;17.33;15.00;;;;;;;;5106485;27;45277;-74
2023/06/21 07:22:26;;;;;;;;;15.00;14.33;;;;;;;;5106459;27;45455;-74
2023/06/21 07:24:51;;;;;;;;;15.33;14.00;;;;;;;;5109643;27;45227;-74
2023/06/21 07:27:16;;;;;;;;;16.00;15.33;;;;;;;;5099243;27;45869;-74
2023/06/21 07:29:41;;;;;;;;;15.00;15.00;;;;;;;;5100905;27;45285;-74
2023/06/21 07:32:07;;;;;;;;;14.00;14.00;;;;;;;;5092192;28;45130;-74
2023/06/21 07:34:32;;;;;;;;;20.00;20.00;;;;;;;;5088224;28;45315;-74
2023/06/21 07:36:57;;;;;;;;;12.67;12.67;;;;;;;;5089995;28;45212;-74
2023/06/21 07:39:22;;;;;;;;;16.00;15.00;;;;;;;;5088571;28;44753;-73
2023/06/21 07:41:47;;;;;;;;;16.00;16.00;;;;;;;;5083709;28;45196;-73
2023/06/21 07:44:13;;;;;;;;;15.00;13.00;;;;;;;;5086840;28;46021;-74
2023/06/21 07:46:38;;;;;;;;;13.00;13.00;;;;;;;;5086834;28;45355;-73
2023/06/21 07:49:03;;;;;;;;;12.33;10.33;;;;;;;;5087727;28;44670;-74
2023/06/21 07:51:28;;;;;;;;;18.67;18.00;;;;;;;;5085072;28;45211;-74
2023/06/21 07:53:53;;;;;;;;;15.33;15.33;;;;;;;;5085147;28;45316;-74
2023/06/21 07:56:19;;;;;;;;;19.00;19.00;;;;;;;;5067463;28;45261;-73
2023/06/21 07:58:44;;;;;;;;;15.33;14.67;;;;;;;;5086301;28;45255;-74
2023/06/21 08:01:09;;;;;;;;;16.00;15.33;;;;;;;;5087924;28;45220;-73
2023/06/21 08:03:34;;;;;;;;;17.00;16.33;;;;;;;;5084312;28;45196;-74
2023/06/21 08:05:59;;;;;;;;;22.33;22.33;;;;;;;;5083282;28;45219;-73
2023/06/21 08:08:25;;;;;;;;;20.67;19.67;;;;;;;;5081474;28;45193;-73
2023/06/21 08:10:50;;;;;;;;;26.67;26.00;;;;;;;;5080646;28;45539;-74
2023/06/21 08:13:18;;;;;;;;;25.67;24.33;;;;;;;;5062722;28;48095;-74
2023/06/21 08:15:43;;;;;;;;;19.00;19.00;;;;;;;;5080854;28;45342;-74
2023/06/21 08:18:09;;;;;;;;;20.67;20.67;;;;;;;;5067719;28;45729;-74
2023/06/21 08:20:34;;;;;;;;;21.67;20.33;;;;;;;;5061873;28;45924;-73
2023/06/21 08:22:59;;;;;;;;;21.00;21.00;;;;;;;;5086711;28;45185;-73
2023/06/21 08:25:24;;;;;;;;;24.00;24.00;;;;;;;;5083342;28;45350;-73
2023/06/21 08:27:49;;;;;;;;;21.33;21.00;;;;;;;;5086702;28;45268;-74
2023/06/21 08:30:15;;;;;;;;;22.33;22.33;;;;;;;;5102056;27;45456;-74
2023/06/21 08:32:40;;;;;;;;;16.33;16.33;;;;;;;;5111852;27;46126;-74
2023/06/21 08:35:06;;;;;;;;;17.00;16.00;;;;;;;;5109375;27;45334;-74
2023/06/21 08:37:31;;;;;;;;;14.00;12.33;;;;;;;;5116333;27;44721;-75
2023/06/21 08:39:57;;;;;;;;;13.00;13.00;;;;;;;;5113998;27;44671;-74
2023/06/21 08:42:24;;;;;;;;;11.50;10.75;;;;;;;;5116604;27;45436;-75
2023/06/21 08:44:53;;;;;;;;;14.67;12.00;;;;;;;;5114732;27;45272;-74
2023/06/21 08:47:20;;;;;;;;;14.00;13.00;;;;;;;;5112487;27;45325;-73
2023/06/21 08:49:46;;;;;;;;;12.33;12.33;;;;;;;;5113072;27;45622;-73
2023/06/21 08:52:16;;;;;;;;;15.33;15.00;;;;;;;;5107206;27;45452;-73
2023/06/21 08:54:45;;;;;;;;;13.67;13.67;;;;;;;;5098033;27;44826;-73
2023/06/21 08:57:14;;;;;;;;;12.00;10.67;;;;;;;;5114174;27;45128;-74
2023/06/21 08:59:56;;;;;;;;;11.67;11.67;;;;;;;;5111685;27;45381;-74
2023/06/21 09:02:21;;;;;;;;;10.67;10.67;;;;;;;;5116626;27;45624;-74
2023/06/21 09:04:49;;;;;;;;;11.67;11.33;;;;;;;;5112336;27;45290;-74
2023/06/21 09:07:14;;;;;;;;;9.00;9.00;;;;;;;;5095853;27;45222;-74
2023/06/21 09:09:41;;;;;;;;;12.33;12.00;;;;;;;;5112486;27;45480;-73
2023/06/21 09:12:07;;;;;;;;;12.33;12.33;;;;;;;;5114102;27;45279;-73
2023/06/21 09:14:33;;;;;;;;;11.33;11.33;;;;;;;;5112474;27;44702;-72
2023/06/21 09:16:59;;;;;;;;;9.00;9.00;;;;;;;;5118311;27;44730;-74
2023/06/21 09:19:24;;;;;;;;;10.33;10.33;;;;;;;;5088483;27;45824;-74
2023/06/21 09:21:50;;;;;;;;;11.33;10.67;;;;;;;;5084761;27;48620;-77
2023/06/21 09:24:15;;;;;;;;;11.00;10.00;;;;;;;;5106770;27;45406;-74
2023/06/21 09:26:40;;;;;;;;;11.67;10.33;;;;;;;;5102797;27;45259;-73
2023/06/21 09:29:06;;;;;;;;;10.67;10.67;;;;;;;;5082886;28;47190;-73
2023/06/21 09:31:31;;;;;;;;;12.00;12.00;;;;;;;;5084376;28;46211;-74
2023/06/21 09:33:57;;;;;;;;;13.67;12.67;;;;;;;;5087201;28;45320;-74
2023/06/21 09:36:23;;;;;;;;;8.00;8.00;;;;;;;;5090606;28;45219;-74
2023/06/21 09:38:49;;;;;;;;;13.00;13.00;;;;;;;;5066677;28;47409;-74
2023/06/21 09:41:17;;;;;;;;;12.00;10.50;;;;;;;;5081714;28;45421;-73
2023/06/21 09:43:42;;;;;;;;;8.75;8.75;;;;;;;;5085785;28;45304;-75
2023/06/21 09:46:09;;;;;;;;;11.00;11.00;;;;;;;;5083690;28;45294;-73
2023/06/21 09:48:35;;;;;;;;;10.50;10.00;;;;;;;;5081650;28;45500;-74
2023/06/21 09:51:01;;;;;;;;;11.67;11.33;;;;;;;;5083656;28;45243;-74
2023/06/21 09:53:26;;;;;;;;;8.33;8.33;;;;;;;;5085015;28;45320;-73
2023/06/21 09:55:51;;;;;;;;;11.00;11.00;;;;;;;;5083312;28;45367;-73
2023/06/21 09:58:17;;;;;;;;;14.00;13.00;;;;;;;;5083170;28;45242;-74
2023/06/21 10:00:42;;;;;;;;;10.33;9.67;;;;;;;;5074035;28;47333;-74
2023/06/21 10:03:08;;;;;;;;;10.00;10.00;;;;;;;;5097385;28;44719;-74
2023/06/21 10:05:33;;;;;;;;;8.00;8.00;;;;;;;;5076942;28;44685;-74
2023/06/21 10:07:58;;;;;;;;;9.33;9.33;;;;;;;;5091315;28;45231;-73
2023/06/21 10:10:24;;;;;;;;;10.67;10.67;;;;;;;;5086790;28;45213;-74
2023/06/21 10:12:50;;;;;;;;;11.67;10.67;;;;;;;;5092827;28;45340;-74
2023/06/21 10:15:17;;;;;;;;;9.33;9.33;;;;;;;;5095296;28;45141;-75
2023/06/21 10:17:42;;;;;;;;;11.00;11.00;;;;;;;;5095520;28;44763;-75
2023/06/21 10:20:09;;;;;;;;;11.67;11.33;;;;;;;;5088669;28;45295;-74
2023/06/21 10:22:36;;;;;;;;;12.00;11.00;;;;;;;;5098566;28;45317;-75
2023/06/21 10:25:02;;;;;;;;;10.25;9.50;;;;;;;;5090211;28;45252;-74
2023/06/21 10:27:27;;;;;;;;;9.33;9.33;;;;;;;;5084055;28;45209;-74
2023/06/21 10:29:54;;;;;;;;;12.67;11.33;;;;;;;;5091160;28;45045;-74
2023/06/21 10:32:20;;;;;;;;;11.00;11.00;;;;;;;;5086183;28;45223;-74
2023/06/21 10:35:13;;;;;;;;;8.25;7.50;;;;;;;;5087955;28;45318;-74
2023/06/21 10:37:48;;;;;;;;;11.67;11.67;;;;;;;;5082367;28;45423;-74
2023/06/21 10:40:14;;;;;;;;;11.33;11.00;;;;;;;;5067090;28;47323;-74
2023/06/21 10:42:39;;;;;;;;;10.25;10.25;;;;;;;;5088147;28;45183;-75
2023/06/21 10:45:05;;;;;;;;;10.67;10.67;;;;;;;;5086592;28;45488;-75
2023/06/21 10:47:31;;;;;;;;;8.33;8.33;;;;;;;;5085550;28;45363;-76
2023/06/21 10:50:00;;;;;;;;;11.67;11.33;;;;;;;;5089126;28;45229;-74
2023/06/21 10:52:26;;;;;;;;;8.25;8.25;;;;;;;;5086089;28;45272;-75
2023/06/21 10:54:53;;;;;;;;;9.75;9.25;;;;;;;;5067400;28;45308;-75
2023/06/21 10:57:19;;;;;;;;;8.75;8.75;;;;;;;;5085663;28;45325;-75
2023/06/21 10:59:45;;;;;;;;;11.00;11.00;;;;;;;;5084054;28;46577;-74
2023/06/21 11:02:10;;;;;;;;;11.50;11.25;;;;;;;;5071952;28;45865;-74
2023/06/21 11:04:54;;;;;;;;;42.33;35.33;;;;;;;;5089542;28;45294;-74
2023/06/21 11:07:23;;;;;;;;;81.25;75.75;;;;;;;;5085563;28;45553;-75
2023/06/21 11:09:51;;;;;;;;;23.33;21.33;;;;;;;;5080802;28;45379;-74
2023/06/21 11:12:17;;;;;;;;;31.00;29.33;;;;;;;;5081000;28;45287;-73
2023/06/21 11:14:42;;;;;;;;;10.67;10.67;;;;;;;;5078487;28;45453;-74
2023/06/21 11:17:15;;;;;;;;;10.67;10.67;;;;;;;;5081372;28;45471;-75
2023/06/21 11:19:42;;;;;;;;;10.67;10.67;;;;;;;;5079486;28;46330;-74
2023/06/21 11:22:14;;;;;;;;;14.67;13.00;;;;;;;;5083106;28;45228;-75
2023/06/21 11:24:48;;;;;;;;;8.67;8.67;;;;;;;;5064595;28;45302;-74
2023/06/21 11:27:13;;;;;;;;;12.67;11.00;;;;;;;;5061715;28;46222;-75
2023/06/21 11:29:40;;;;;;;;;13.00;12.00;;;;;;;;5092526;27;45333;-74
2023/06/21 11:32:15;;;;;;;;;8.00;8.00;;;;;;;;5084627;27;45363;-75
2023/06/21 11:34:53;;;;;;;;;10.00;10.00;;;;;;;;5102858;27;45372;-74
2023/06/21 11:37:29;;;;;;;;;8.00;8.00;;;;;;;;5105497;27;45327;-75
2023/06/21 11:40:02;;;;;;;;;10.33;10.33;;;;;;;;5088296;27;48505;-75
2023/06/21 11:42:31;;;;;;;;;9.00;9.00;;;;;;;;5089723;27;44898;-75
2023/06/21 11:44:56;;;;;;;;;10.00;10.00;;;;;;;;5083746;27;45445;-75
2023/06/21 11:47:22;;;;;;;;;10.00;10.00;;;;;;;;5081814;28;45236;-74
2023/06/21 11:49:48;;;;;;;;;10.67;10.67;;;;;;;;5063180;28;46912;-75
2023/06/21 11:52:13;;;;;;;;;10.67;10.67;;;;;;;;5080176;28;45350;-75
2023/06/21 11:54:38;;;;;;;;;10.00;9.00;;;;;;;;5089596;28;45283;-74
2023/06/21 11:57:07;;;;;;;;;13.33;12.67;;;;;;;;5097127;28;45464;-76
2023/06/21 11:59:36;;;;;;;;;36.67;30.00;;;;;;;;5096617;28;45618;-75
2023/06/21 12:02:14;;;;;;;;;38.33;31.00;;;;;;;;5085445;28;45374;-75
2023/06/21 12:04:40;;;;;;;;;38.33;33.33;;;;;;;;5094786;28;45251;-74
2023/06/21 12:07:05;;;;;;;;;32.00;29.67;;;;;;;;5078170;28;47187;-75
2023/06/21 12:09:30;;;;;;;;;17.67;16.33;;;;;;;;5096906;28;45267;-75
2023/06/21 12:11:57;;;;;;;;;60.33;48.67;;;;;;;;5096448;28;45303;-74
2023/06/21 12:14:22;;;;;;;;;26.00;25.00;;;;;;;;5096980;28;45295;-75
2023/06/21 12:16:49;;;;;;;;;23.67;22.67;;;;;;;;5097493;28;44779;-75
2023/06/21 12:19:14;;;;;;;;;11.25;11.25;;;;;;;;5094153;28;46590;-75
2023/06/21 12:21:39;;;;;;;;;10.67;10.33;;;;;;;;5075303;28;44729;-75
2023/06/21 12:24:05;;;;;;;;;8.00;8.00;;;;;;;;5093564;28;45501;-75
2023/06/21 12:26:30;;;;;;;;;8.75;8.75;;;;;;;;5098438;28;44787;-75
2023/06/21 12:28:55;;;;;;;;;11.33;10.33;;;;;;;;5097706;28;45186;-75
2023/06/21 12:31:21;;;;;;;;;11.00;10.00;;;;;;;;5079123;28;45318;-75
2023/06/21 12:33:53;;;;;;;;;13.00;13.00;;;;;;;;5086993;28;45260;-74
2023/06/21 12:36:23;;;;;;;;;10.25;10.25;;;;;;;;5074235;28;47337;-74
2023/06/21 12:38:48;;;;;;;;;10.00;10.00;;;;;;;;5070020;28;48471;-75
2023/06/21 12:41:17;;;;;;;;;12.00;12.00;;;;;;;;5078726;28;45565;-75
2023/06/21 12:43:43;;;;;;;;;14.00;13.67;;;;;;;;5094542;28;45456;-75
2023/06/21 12:46:09;;;;;;;;;11.33;11.33;;;;;;;;5090748;28;45263;-75
2023/06/21 12:48:41;;;;;;;;;14.33;13.33;;;;;;;;5070623;28;47507;-73
2023/06/21 12:51:06;;;;;;;;;9.67;9.67;;;;;;;;5090926;28;45481;-75
2023/06/21 12:53:37;;;;;;;;;11.67;10.67;;;;;;;;5098119;28;44750;-75
2023/06/21 12:56:09;;;;;;;;;9.33;9.33;;;;;;;;5075624;28;46308;-74
2023/06/21 12:58:34;;;;;;;;;14.00;12.33;;;;;;;;5091849;28;45244;-75
2023/06/21 13:01:01;;;;;;;;;8.67;7.33;;;;;;;;5088017;28;45296;-75
2023/06/21 13:03:26;;;;;;;;;8.67;8.67;;;;;;;;5068653;28;45343;-74
2023/06/21 13:05:51;;;;;;;;;11.00;11.00;;;;;;;;5092095;28;45552;-74
2023/06/21 13:08:17;;;;;;;;;6.67;6.67;;;;;;;;5090906;28;45330;-74
2023/06/21 13:10:42;;;;;;;;;10.67;10.67;;;;;;;;5072042;28;45319;-75
2023/06/21 13:13:07;;;;;;;;;13.00;13.00;;;;;;;;5092211;28;45568;-75
2023/06/21 13:15:32;;;;;;;;;10.67;10.33;;;;;;;;5089731;28;45309;-73
2023/06/21 13:17:57;;;;;;;;;9.67;9.67;;;;;;;;5086662;28;45268;-74
2023/06/21 13:20:23;;;;;;;;;10.00;9.33;;;;;;;;5091498;28;45311;-75
2023/06/21 13:22:49;;;;;;;;;8.00;8.00;;;;;;;;5086592;28;45254;-74
2023/06/21 13:25:14;;;;;;;;;10.00;10.00;;;;;;;;5077058;28;47241;-74
2023/06/21 13:27:39;;;;;;;;;9.00;9.00;;;;;;;;5086123;28;45348;-74
2023/06/21 13:30:04;;;;;;;;;10.00;10.00;;;;;;;;5107791;27;45281;-75
2023/06/21 13:32:30;;;;;;;;;10.33;9.33;;;;;;;;5112046;27;45372;-74
2023/06/21 13:34:55;;;;;;;;;10.67;9.67;;;;;;;;5115744;27;45487;-75
2023/06/21 13:37:20;;;;;;;;;8.00;8.00;;;;;;;;5107836;27;45428;-74
2023/06/21 13:39:45;;;;;;;;;10.00;9.00;;;;;;;;5107165;27;45269;-75
2023/06/21 13:42:10;;;;;;;;;10.00;10.00;;;;;;;;5108448;27;45377;-74
2023/06/21 13:44:36;;;;;;;;;8.67;8.67;;;;;;;;5105344;27;45534;-74
2023/06/21 13:47:01;;;;;;;;;10.67;10.67;;;;;;;;5087064;27;48089;-74
2023/06/21 13:49:26;;;;;;;;;9.33;9.33;;;;;;;;5110809;27;45291;-75
2023/06/21 13:51:51;;;;;;;;;9.67;9.67;;;;;;;;5090941;27;45327;-74
2023/06/21 13:54:17;;;;;;;;;10.67;10.33;;;;;;;;5090285;27;45167;-75
2023/06/21 13:56:42;;;;;;;;;8.33;8.33;;;;;;;;5112772;27;45377;-75
2023/06/21 13:59:07;;;;;;;;;8.00;7.00;;;;;;;;5114140;27;45223;-74
2023/06/21 14:01:33;;;;;;;;;8.33;8.33;;;;;;;;5115851;27;45315;-75
2023/06/21 14:03:58;;;;;;;;;8.00;7.00;;;;;;;;5097551;27;46179;-75
2023/06/21 14:06:23;;;;;;;;;8.00;8.00;;;;;;;;5094486;27;47989;-75
2023/06/21 14:08:49;;;;;;;;;6.25;6.25;;;;;;;;5112124;27;44653;-74
2023/06/21 14:11:14;;;;;;;;;8.25;8.25;;;;;;;;5093082;27;45247;-74
2023/06/21 14:13:39;;;;;;;;;8.25;8.25;;;;;;;;5087448;27;47170;-74
2023/06/21 14:16:04;;;;;;;;;8.00;7.75;;;;;;;;5089449;28;48241;-74